Airfield :
LOGIN :

Register | Disclaimer

   EN    FR    IT 

 










Legend :    VFR   Marginal VFR   IFR   Intensive IFR   Very Intensive IFR
Visi :
Ceiling :
>= 8 km
>= 3000ft
5 to 8 km
1000 to 3000 ft
1500m to 5 km
500 to 1000 ft
800 to 1500m
200 to 500 ft
< 800m
< 200 ft
Symbols :   Thunderstorms  Fog  Heavy snow  Heavy precipitations  Wind > 20 kt
SIGMETs :     Misc.  Thunderstorms  Icing  Turbulence  Mountain Waves  Volcanic Ashes







- Airport Elevation : 1470 ft
- IATA code : KLU


LOWK - Klagenfurt

EXPIRED METARs :
  • 241420Z 08006KT 030V140 9999 FEW060 31/16 Q1014 NOSIG
  • 241350Z 06005KT 020V140 9999 FEW060 FEW070CB SCT300 31/17 Q1014 NOSIG
  • 241320Z 07004KT 030V110 9999 FEW060 FEW070CB SCT300 30/19 Q1015 NOSIG
  • 241250Z VRB04KT 9999 FEW060 FEW070CB SCT300 29/18 Q1015 NOSIG
  • 241220Z 10003KT 060V160 9999 FEW060 FEW070CB SCT300 28/17 Q1016 NOSIG
  • 241150Z 08004KT 330V140 9999 FEW060 FEW070CB 28/17 Q1016 NOSIG

Expired Forecast.
No reported NOTAMs for that airfield.
2 SIGMETs reported for the Wien FIR (LOVV) :
 
Frequent thunderstorms and hail
LOVV SIGMET 2 VALID 250131/250230 LOWW
LOVV WIEN FIR FRQ TSGR OBS WI N4640 E01605 - N4630 E01450 - N4725 E01535 - N4705 E01635 - N4640 E01605 TOP FL410 MOV E NC=
Frequent thunderstorms and hail
LOVV SIGMET 1 VALID 250015/250130 LOWW
LOVV WIEN FIR FRQ TSGR OBS WI N4640 E01605 - N4625 E01430 - N4735 E01430 - N4735 E01645 - N4640 E01605 TOP FL430 MOV E NC=



MET'MAP, your aeronautical weather chart ! - Copyright ORBIFLY December 2007 - Disclaimer

ORBIFLY MET'MAP TEAM :

Programming & Development : Alexandra Zaïnal
Concept & Development : Baudouin d'Aumeries
Co-Development & Prog : Marc-Olivier Méhu
Technical & hardware support : Manuel Goepfert

Contact : metmap@orbifly.com




SOURCES & CREDITS :

   NOAA